createdAt,value
2017-10-23T00:00:05.410Z,68.13
2017-10-23T00:00:45.894Z,67.94
2017-10-23T00:01:26.306Z,67.94
2017-10-23T00:02:06.732Z,67.55
2017-10-23T00:02:47.137Z,67.75
2017-10-23T00:03:27.539Z,67.55
2017-10-23T00:04:07.932Z,67.94
2017-10-23T00:04:48.348Z,67.94
2017-10-23T00:05:28.794Z,67.27
2017-10-23T00:06:09.146Z,67.46
2017-10-23T00:06:49.596Z,67.94
2017-10-23T00:07:30.049Z,68.13
2017-10-23T00:08:15.412Z,67.55
2017-10-23T00:08:55.641Z,67.55
2017-10-23T00:09:36.064Z,68.04
2017-10-23T00:10:16.460Z,67.55
2017-10-23T00:10:56.907Z,67.94
2017-10-23T00:11:37.370Z,67.65
2017-10-23T00:12:17.727Z,68.23
2017-10-23T00:12:58.120Z,67.94
2017-10-23T00:13:39.276Z,68.32
2017-10-23T00:14:19.672Z,67.55
2017-10-23T00:15:00.220Z,67.18
2017-10-23T00:15:40.743Z,67.36
2017-10-23T00:16:21.218Z,68.04
2017-10-23T00:17:02.949Z,68.32
2017-10-23T00:17:44.033Z,67.46
2017-10-23T00:18:23.926Z,67.75
2017-10-23T00:19:05.381Z,67.27
2017-10-23T00:19:45.764Z,67.27
2017-10-23T00:20:26.201Z,66.7
2017-10-23T00:21:07.843Z,67.36
2017-10-23T00:21:47.961Z,66.92
2017-10-23T00:22:30.109Z,66.13
2017-10-23T00:23:10.710Z,66.03
2017-10-23T00:23:51.114Z,66.5
2017-10-23T00:24:31.527Z,66.79
2017-10-23T00:25:11.828Z,67.08
2017-10-23T00:25:52.494Z,66.22
2017-10-23T00:26:33.136Z,67.08
2017-10-23T00:27:13.501Z,66.22
2017-10-23T00:27:53.910Z,67.36
2017-10-23T00:28:34.344Z,67.75
2017-10-23T00:29:15.459Z,66.99
2017-10-23T00:29:56.007Z,67.55
2017-10-23T00:30:36.616Z,67.84
2017-10-23T00:31:16.951Z,68.32
2017-10-23T00:31:57.438Z,68.32
2017-10-23T00:32:37.809Z,67.55
2017-10-23T00:33:18.277Z,66.7
2017-10-23T00:33:58.751Z,66.31
2017-10-23T00:34:39.286Z,66.89
2017-10-23T00:35:19.660Z,66.22
2017-10-23T00:35:59.964Z,66.89
2017-10-23T00:36:40.462Z,66.79
2017-10-23T00:37:20.877Z,66.79
2017-10-23T00:38:01.252Z,66.7
2017-10-23T00:38:42.438Z,66.89
2017-10-23T00:39:22.909Z,67.18
2017-10-23T00:40:03.310Z,66.89
2017-10-23T00:40:43.708Z,66.56
2017-10-23T00:41:24.178Z,67.05
2017-10-23T00:42:04.678Z,67.24
2017-10-23T00:42:45.037Z,67.52
2017-10-23T00:43:25.491Z,67.62
2017-10-23T00:44:06.021Z,68.1
2017-10-23T00:44:46.788Z,67.46
2017-10-23T00:45:27.367Z,67.94
2017-10-23T00:46:07.960Z,66.76
2017-10-23T00:46:48.339Z,67.52
2017-10-23T00:47:28.789Z,68.1
2017-10-23T00:48:10.077Z,68.19
2017-10-23T00:48:50.777Z,68.32
2017-10-23T00:49:31.011Z,68.19
2017-10-23T00:50:11.419Z,67.46
2017-10-23T00:50:51.828Z,68.23
2017-10-23T00:51:32.292Z,67.65
2017-10-23T00:52:12.607Z,68.13
2017-10-23T00:52:53.040Z,68.04
2017-10-23T00:53:33.535Z,67.55
2017-10-23T00:54:13.996Z,68.13
2017-10-23T00:54:54.518Z,67.27
2017-10-23T00:55:34.995Z,66.79
2017-10-23T00:56:15.434Z,67.36
2017-10-23T00:56:55.837Z,66.5
2017-10-23T00:57:36.322Z,67.08
2017-10-23T00:58:16.962Z,66.89
2017-10-23T00:58:58.826Z,67.65
2017-10-23T00:59:39.984Z,67.36
2017-10-23T01:00:20.664Z,66.99
2017-10-23T01:01:01.073Z,67.18
2017-10-23T01:01:41.534Z,67.36
2017-10-23T01:02:21.979Z,67.65
2017-10-23T01:03:02.239Z,67.65
2017-10-23T01:03:42.637Z,67.18
2017-10-23T01:04:24.005Z,67.75
2017-10-23T01:05:05.896Z,67.65
2017-10-23T01:05:46.214Z,68.04
2017-10-23T01:06:26.733Z,68.04
2017-10-23T01:07:07.224Z,67.62
2017-10-23T01:07:47.635Z,68
2017-10-23T01:08:28.033Z,68.19
2017-10-23T01:09:08.424Z,68.41
2017-10-23T01:09:49.122Z,68.32
2017-10-23T01:10:29.515Z,67.55
2017-10-23T01:11:09.893Z,67.62
2017-10-23T01:11:50.358Z,67.65
2017-10-23T01:12:30.766Z,68.04
2017-10-23T01:13:11.109Z,68.1
2017-10-23T01:13:51.755Z,68.04
2017-10-23T01:14:31.962Z,68.23
2017-10-23T01:15:12.309Z,67.52
2017-10-23T01:15:52.682Z,67.91
2017-10-23T01:16:33.063Z,68
2017-10-23T01:17:13.505Z,68.1
2017-10-23T01:17:54.020Z,68.23
2017-10-23T01:18:34.701Z,68.48
2017-10-23T01:19:15.096Z,68.86
2017-10-23T01:19:55.449Z,68.61
2017-10-23T01:20:36.533Z,68.48
2017-10-23T01:21:17.005Z,68.19
2017-10-23T01:21:57.406Z,68.13
2017-10-23T01:22:37.800Z,68.04
2017-10-23T01:23:18.244Z,68.23
2017-10-23T01:23:58.704Z,68.04
2017-10-23T01:24:39.100Z,68.32
2017-10-23T01:25:19.564Z,68.04
2017-10-23T01:25:59.967Z,68.04
2017-10-23T01:26:44.115Z,67.65
2017-10-23T01:27:24.133Z,67.65
2017-10-23T01:28:04.479Z,68.23
2017-10-23T01:28:44.891Z,68.32
2017-10-23T01:29:25.346Z,68.13
2017-10-23T01:30:05.776Z,68.57
2017-10-23T01:30:46.268Z,68.76
2017-10-23T01:31:27.226Z,68.67
2017-10-23T01:32:07.657Z,68.57
2017-10-23T01:32:48.140Z,68.96
2017-10-23T01:33:28.567Z,68.29
2017-10-23T01:34:09.031Z,68.96
2017-10-23T01:34:49.523Z,68.38
2017-10-23T01:35:30.355Z,68.76
2017-10-23T01:36:11.398Z,69.15
2017-10-23T01:36:52.955Z,68.96
2017-10-23T01:37:33.339Z,68.67
2017-10-23T01:38:13.782Z,68.8
2017-10-23T01:38:54.313Z,68.86
2017-10-23T01:39:34.678Z,68.8
2017-10-23T01:40:16.678Z,68.99
2017-10-23T01:40:58.109Z,68.57
2017-10-23T01:41:38.653Z,68.61
2017-10-23T01:42:19.984Z,68.8
2017-10-23T01:43:00.301Z,69.09
2017-10-23T01:43:41.615Z,69.27
2017-10-23T01:44:21.970Z,68.8
2017-10-23T01:45:02.626Z,68.8
2017-10-23T01:45:43.234Z,68.51
2017-10-23T01:46:25.243Z,68.9
2017-10-23T01:47:05.721Z,68.7
2017-10-23T01:47:46.107Z,68.8
2017-10-23T01:48:26.556Z,68.67
2017-10-23T01:49:10.410Z,68.96
2017-10-23T01:49:51.468Z,69.15
2017-10-23T01:50:32.951Z,69.72
2017-10-23T01:51:16.079Z,69.53
2017-10-23T01:51:56.719Z,69.72
2017-10-23T01:52:37.400Z,69.53
2017-10-23T01:53:17.840Z,69.43
2017-10-23T01:53:58.253Z,69.62
2017-10-23T01:54:38.619Z,69.15
2017-10-23T01:55:19.070Z,68.48
2017-10-23T01:56:00.664Z,68.76
2017-10-23T01:56:40.528Z,69.62
2017-10-23T01:57:21.022Z,68.96
2017-10-23T01:58:01.441Z,68.76
2017-10-23T01:58:41.856Z,69.15
2017-10-23T01:59:22.399Z,69.43
2017-10-23T02:00:04.114Z,68.86
2017-10-23T02:00:44.428Z,69.15
2017-10-23T02:01:24.841Z,69.72
2017-10-23T02:02:07.560Z,68.99
2017-10-23T02:02:47.981Z,69.18
2017-10-23T02:03:28.458Z,69.47
2017-10-23T02:04:08.905Z,68.96
2017-10-23T02:04:49.331Z,69.27
2017-10-23T02:05:29.665Z,68.96
2017-10-23T02:06:10.230Z,70.1
2017-10-23T02:06:50.580Z,70.29
2017-10-23T02:07:32.973Z,70.29
2017-10-23T02:08:13.525Z,70.23
2017-10-23T02:08:53.827Z,70.52
2017-10-23T02:09:34.251Z,69.76
2017-10-23T02:10:14.653Z,70.39
2017-10-23T02:10:55.070Z,70.48
2017-10-23T02:11:35.472Z,70.33
2017-10-23T02:12:15.921Z,70.52
2017-10-23T02:12:56.341Z,70.39
2017-10-23T02:13:37.419Z,69.85
2017-10-23T02:14:17.428Z,69.72
2017-10-23T02:14:57.815Z,69.91
2017-10-23T02:15:38.154Z,70.48
2017-10-23T02:16:19.739Z,70.42
2017-10-23T02:17:00.410Z,69.82
2017-10-23T02:17:40.664Z,70.14
2017-10-23T02:18:21.370Z,70.52
2017-10-23T02:19:01.549Z,70.04
2017-10-23T02:19:41.998Z,70.04
2017-10-23T02:20:23.255Z,70.61
2017-10-23T02:21:03.668Z,69.85
2017-10-23T02:21:44.269Z,69.76
2017-10-23T02:22:24.691Z,69.56
2017-10-23T02:23:05.349Z,70.04
2017-10-23T02:23:45.769Z,69.95
2017-10-23T02:24:26.295Z,69.85
2017-10-23T02:25:06.720Z,69.76
2017-10-23T02:25:47.485Z,69.37
2017-10-23T02:26:27.486Z,70.04
2017-10-23T02:27:07.925Z,69.76
2017-10-23T02:27:49.416Z,69.95
2017-10-23T02:28:29.850Z,69.85
2017-10-23T02:29:10.314Z,69.56
2017-10-23T02:29:50.667Z,70.04
2017-10-23T02:30:31.486Z,69.85
2017-10-23T02:31:11.638Z,69.76
2017-10-23T02:31:51.990Z,69.66
2017-10-23T02:32:32.419Z,69.18
2017-10-23T02:33:12.970Z,69.47
2017-10-23T02:33:53.319Z,70.14
2017-10-23T02:34:33.716Z,69.95
2017-10-23T02:35:14.169Z,69.66
2017-10-23T02:35:54.584Z,69.76
2017-10-23T02:36:35.182Z,69.66
2017-10-23T02:37:15.602Z,69.82
2017-10-23T02:37:55.972Z,69.72
2017-10-23T02:38:36.900Z,70.48
2017-10-23T02:39:17.277Z,70.29
2017-10-23T02:39:57.771Z,70.2
2017-10-23T02:40:38.171Z,70.29
2017-10-23T02:41:18.607Z,70.48
2017-10-23T02:43:45.948Z,69.85
2017-10-23T02:44:39.476Z,69.66
2017-10-23T02:45:31.606Z,69.72
2017-10-23T02:46:23.997Z,69.56
2017-10-23T02:47:16.710Z,69.85
2017-10-23T02:48:07.932Z,69.56
2017-10-23T02:49:00.095Z,69.66
2017-10-23T02:49:53.577Z,69.37
2017-10-23T02:50:45.662Z,69.43
2017-10-23T02:51:36.471Z,70.1
2017-10-23T02:54:12.273Z,70.48
2017-10-23T02:55:06.808Z,69.72
2017-10-23T02:55:58.744Z,70.42
2017-10-23T02:56:49.479Z,70.23
2017-10-23T02:58:43.159Z,69.53
2017-10-23T02:59:23.830Z,69.56
2017-10-23T03:00:04.268Z,70.14
2017-10-23T03:00:44.649Z,70.23
2017-10-23T03:01:25.332Z,69.95
2017-10-23T03:02:05.822Z,69.85
2017-10-23T03:02:46.971Z,69.66
2017-10-23T03:03:26.688Z,69.56
2017-10-23T03:04:07.267Z,69.76
2017-10-23T03:04:47.657Z,69.47
2017-10-23T03:05:28.173Z,69.34
2017-10-23T03:06:08.589Z,70.04
2017-10-23T03:06:49.034Z,70.04
2017-10-23T03:07:29.417Z,69.37
2017-10-23T03:08:10.361Z,69.66
2017-10-23T03:08:50.973Z,69.76
2017-10-23T03:09:31.491Z,69.66
2017-10-23T03:10:14.418Z,69.47
2017-10-23T03:10:54.997Z,69.47
2017-10-23T03:11:35.392Z,69.27
2017-10-23T03:12:15.741Z,69.76
2017-10-23T03:12:56.352Z,68.99
2017-10-23T03:13:36.789Z,69.37
2017-10-23T03:14:17.180Z,69.27
2017-10-23T03:14:57.500Z,68.99
2017-10-23T03:15:38.109Z,68.7
2017-10-23T03:16:18.458Z,68.51
2017-10-23T03:17:01.121Z,68.61
2017-10-23T03:17:41.484Z,68.8
2017-10-23T03:18:22.256Z,68.99
2017-10-23T03:19:02.730Z,69.66
2017-10-23T03:19:43.093Z,69.37
2017-10-23T03:20:26.744Z,69.53
2017-10-23T03:21:07.151Z,69.95
2017-10-23T03:21:48.271Z,69.72
2017-10-23T03:22:30.796Z,70.29
2017-10-23T03:23:11.117Z,70.58
2017-10-23T03:23:52.839Z,70.23
2017-10-23T03:24:32.859Z,70.14
2017-10-23T03:25:13.271Z,70.52
2017-10-23T03:25:53.691Z,69.56
2017-10-23T03:26:34.780Z,69.76
2017-10-23T03:27:15.220Z,69.85
2017-10-23T03:27:56.337Z,69.95
2017-10-23T03:28:36.815Z,70.04
2017-10-23T03:29:17.140Z,70.33
2017-10-23T03:29:57.710Z,70.52
2017-10-23T03:30:38.482Z,69.56
2017-10-23T03:31:18.759Z,69.66
2017-10-23T03:31:59.433Z,69.56
2017-10-23T03:32:40.423Z,69.76
2017-10-23T03:33:21.184Z,70.42
2017-10-23T03:34:01.517Z,70.52
2017-10-23T03:34:43.615Z,70.61
2017-10-23T03:35:23.908Z,69.95
2017-10-23T03:36:05.166Z,69.95
2017-10-23T03:36:45.586Z,69.66
2017-10-23T03:37:26.034Z,70.14
2017-10-23T03:38:06.682Z,69.85
2017-10-23T03:38:47.146Z,69.56
2017-10-23T03:39:27.592Z,69.56
2017-10-23T03:40:07.974Z,69.27
2017-10-23T03:40:48.639Z,69.27
2017-10-23T03:41:29.560Z,69.18
2017-10-23T03:42:11.700Z,69.76
2017-10-23T03:42:51.742Z,69.66
2017-10-23T03:43:32.197Z,69.76
2017-10-23T03:44:12.573Z,68.7
2017-10-23T03:44:53.491Z,68.99
2017-10-23T03:45:34.494Z,69.18
2017-10-23T03:46:15.105Z,69.47
2017-10-23T03:46:55.507Z,70.23
2017-10-23T03:47:36.086Z,69.27
2017-10-23T03:48:16.608Z,69.56
2017-10-23T03:48:59.283Z,69.09
2017-10-23T03:49:39.418Z,69.56
2017-10-23T03:50:19.946Z,69.37
2017-10-23T03:51:01.259Z,69.27
2017-10-23T03:51:41.684Z,70.14
2017-10-23T03:52:22.049Z,70.52
2017-10-23T03:53:02.623Z,70.04
2017-10-23T03:53:44.495Z,69.76
2017-10-23T03:54:25.303Z,69.56
2017-10-23T03:55:05.787Z,69.66
2017-10-23T03:55:46.174Z,69.47
2017-10-23T03:56:26.691Z,70.04
2017-10-23T03:57:07.062Z,69.76
2017-10-23T03:57:47.468Z,69.56
2017-10-23T03:58:27.846Z,69.47
2017-10-23T03:59:08.261Z,69.56
2017-10-23T03:59:48.698Z,68.61
2017-10-23T04:00:29.137Z,69.27
2017-10-23T04:01:09.829Z,69.18
2017-10-23T04:01:50.073Z,69.37
2017-10-23T04:41:30.347Z,72.39
2017-10-23T04:42:11.912Z,72.11
2017-10-23T04:42:54.430Z,72.39
2017-10-23T04:43:35.777Z,72.78
2017-10-23T04:44:17.478Z,73.35
2017-10-23T04:44:58.071Z,72.68
2017-10-23T04:45:38.549Z,72.58
2017-10-23T04:46:19.694Z,72.97
2017-10-23T04:47:00.989Z,72.3
2017-10-23T04:47:42.559Z,72.49
2017-10-23T04:48:22.784Z,72.58
2017-10-23T04:49:03.186Z,72.87
2017-10-23T04:49:44.641Z,72.87
2017-10-23T04:50:24.985Z,72.87
2017-10-23T04:51:05.815Z,72.87
2017-10-23T04:51:46.819Z,72.97
2017-10-23T04:52:28.237Z,71.72
2017-10-23T04:53:08.585Z,72.2
2017-10-23T04:53:50.070Z,71.92
2017-10-23T04:54:30.514Z,72.3
2017-10-23T04:55:12.136Z,71.76
2017-10-23T04:55:52.740Z,72.11
2017-10-23T04:56:33.113Z,71.82
2017-10-23T04:57:13.757Z,71.57
2017-10-23T04:57:54.334Z,71.63
2017-10-23T04:58:35.235Z,71.92
2017-10-23T04:59:16.005Z,71.57
2017-10-23T04:59:57.633Z,71.15
2017-10-23T05:00:40.043Z,71.15
2017-10-23T05:01:20.158Z,71.34
2017-10-23T05:02:03.193Z,71.63
2017-10-23T05:02:44.122Z,71.92
2017-10-23T05:03:24.647Z,72.11
2017-10-23T05:04:05.251Z,72.11
2017-10-23T05:04:45.796Z,72.11
2017-10-23T05:05:26.684Z,72.14
2017-10-23T05:06:08.903Z,71.44
2017-10-23T05:06:49.461Z,71.82
2017-10-23T05:07:29.993Z,71.63
2017-10-23T05:08:12.255Z,72.2
2017-10-23T05:08:52.686Z,71.95
2017-10-23T05:09:33.215Z,71.67
2017-10-23T05:10:13.941Z,71.82
2017-10-23T05:10:56.656Z,71.67
2017-10-23T05:11:37.791Z,71.92
2017-10-23T05:12:19.699Z,72.43
2017-10-23T05:13:02.732Z,72.14
2017-10-23T05:13:43.382Z,71.53
2017-10-23T05:14:23.698Z,72.11
2017-10-23T05:15:04.274Z,72.3
2017-10-23T05:15:45.506Z,72.14
2017-10-23T05:16:26.049Z,72.14
2017-10-23T05:17:08.338Z,71.86
2017-10-23T05:17:49.332Z,71.76
2017-10-23T05:18:29.538Z,71.76
2017-10-23T05:19:10.116Z,71.28
2017-10-23T05:19:50.501Z,71.76
2017-10-23T05:20:31.136Z,72.3
2017-10-23T05:21:11.436Z,72.05
2017-10-23T05:21:53.082Z,72.43
2017-10-23T05:22:33.987Z,72.33
2017-10-23T05:23:14.868Z,72.24
2017-10-23T05:23:56.063Z,72.14
2017-10-23T05:24:36.311Z,71.86
2017-10-23T05:25:17.572Z,71.95
2017-10-23T05:25:58.061Z,71.57
2017-10-23T05:26:44.250Z,71.57
2017-10-23T05:27:27.600Z,71.67
2017-10-23T05:29:21.046Z,72.14
2017-10-23T05:30:13.557Z,72.24
2017-10-23T05:31:01.888Z,72.05
2017-10-23T05:31:43.664Z,72.72
2017-10-23T05:32:25.555Z,72.39
2017-10-23T05:33:05.912Z,72.58
2017-10-23T05:33:48.737Z,73.16
2017-10-23T05:35:00.651Z,72.68
2017-10-23T05:35:56.105Z,72.87
2017-10-23T05:36:36.564Z,73.35
2017-10-23T05:37:16.919Z,72.87
2017-10-23T05:37:57.434Z,73.16
2017-10-23T05:38:38.273Z,72.87
2017-10-23T05:39:18.533Z,73.54
2017-10-23T05:40:00.640Z,73.16
2017-10-23T05:40:40.278Z,73.92
2017-10-23T05:41:20.791Z,73.73
2017-10-23T05:42:01.766Z,73.35
2017-10-23T05:42:42.229Z,73.92
2017-10-23T05:43:22.964Z,74.59
2017-10-23T05:44:03.491Z,73.83
2017-10-23T05:44:43.820Z,73.44
2017-10-23T05:45:24.256Z,73.63
2017-10-23T05:46:05.621Z,74.11
2017-10-23T05:46:46.696Z,74.11
2017-10-23T05:47:27.200Z,74.11
2017-10-23T05:48:07.672Z,74.21
2017-10-23T05:48:48.104Z,74.3
2017-10-23T05:49:31.975Z,74.4
2017-10-23T05:50:12.314Z,74.4
2017-10-23T05:50:52.750Z,74.59
2017-10-23T05:51:34.037Z,74.4
2017-10-23T05:52:15.280Z,74.11
2017-10-23T05:52:55.194Z,74.3
2017-10-23T05:53:35.741Z,74.4
2017-10-23T05:54:17.547Z,74.11
2017-10-23T05:54:58.737Z,74.4
2017-10-23T05:55:39.244Z,74.59
2017-10-23T05:56:19.720Z,74.98
2017-10-23T05:57:00.127Z,74.4
2017-10-23T05:57:41.498Z,74.78
2017-10-23T05:58:22.205Z,74.78
2017-10-23T05:59:02.849Z,75.07
2017-10-23T05:59:43.140Z,75.26
2017-10-23T06:00:23.688Z,75.26
2017-10-23T06:01:04.075Z,74.69
2017-10-23T06:01:45.871Z,74.4
2017-10-23T06:02:26.290Z,74.59
2017-10-23T06:03:06.845Z,74.44
2017-10-23T06:03:47.299Z,73.96
2017-10-23T06:04:27.907Z,73.92
2017-10-23T06:05:08.377Z,73.67
2017-10-23T06:05:48.817Z,73.19
2017-10-23T06:06:29.303Z,73.19
2017-10-23T06:07:10.573Z,73.48
2017-10-23T06:07:50.379Z,73.77
2017-10-23T06:08:30.798Z,73.58
2017-10-23T06:09:12.187Z,73.29
2017-10-23T06:09:52.928Z,73.29
2017-10-23T06:10:33.523Z,73.77
2017-10-23T06:11:14.081Z,74.02
2017-10-23T06:11:54.471Z,74.34
2017-10-23T06:12:35.135Z,74.49
2017-10-23T06:13:15.760Z,74.05
2017-10-23T06:13:56.299Z,73.86
2017-10-23T06:14:36.765Z,73.48
2017-10-23T06:15:17.288Z,73.1
2017-10-23T06:16:00.307Z,73.73
2017-10-23T06:16:40.724Z,74.11
2017-10-23T06:17:21.445Z,73.83
2017-10-23T06:18:05.514Z,74.59
2017-10-23T06:18:48.037Z,74.69
2017-10-23T06:19:29.984Z,74.91
2017-10-23T06:20:13.314Z,74.34
2017-10-23T06:20:53.767Z,74.02
2017-10-23T06:21:35.878Z,74.53
2017-10-23T06:22:15.865Z,74.34
2017-10-23T06:22:56.429Z,73.77
2017-10-23T06:23:36.957Z,73.96
2017-10-23T06:24:17.400Z,73.77
2017-10-23T06:24:58.427Z,73.77
2017-10-23T06:25:40.759Z,73.67
2017-10-23T06:26:21.146Z,73.1
2017-10-23T06:27:04.757Z,73.39
2017-10-23T06:27:45.305Z,73.48
2017-10-23T06:28:27.156Z,73
2017-10-23T06:29:07.915Z,73.19
2017-10-23T06:29:50.502Z,73.39
2017-10-23T06:30:31.717Z,73.29
2017-10-23T06:31:12.712Z,73.39
2017-10-23T06:31:58.898Z,72.81
2017-10-23T06:32:39.814Z,72.62
2017-10-23T06:33:20.251Z,73.58
2017-10-23T06:34:00.523Z,73.48
2017-10-23T06:34:40.896Z,73
2017-10-23T06:35:21.316Z,72.72
2017-10-23T06:36:01.985Z,72.24
2017-10-23T06:36:42.785Z,73.1
2017-10-23T06:37:25.387Z,72.72
2017-10-23T06:38:10.645Z,73
2017-10-23T06:38:51.623Z,73
2017-10-23T06:39:32.888Z,72.24
2017-10-23T06:40:13.351Z,72.43
2017-10-23T06:40:53.717Z,72.81
2017-10-23T06:41:34.219Z,72.81
2017-10-23T06:42:16.103Z,73.19
2017-10-23T06:42:56.699Z,73.1
2017-10-23T06:43:37.035Z,72.72
2017-10-23T06:44:17.590Z,73.39
2017-10-23T06:44:58.431Z,73
2017-10-23T06:45:39.450Z,72.43
2017-10-23T06:46:20.478Z,72.91
2017-10-23T06:47:01.189Z,72.81
2017-10-23T06:47:42.090Z,72.72
2017-10-23T06:48:22.605Z,72.91
2017-10-23T06:49:02.869Z,72.91
2017-10-23T06:49:43.497Z,72.94
2017-10-23T06:50:23.856Z,72.85
2017-10-23T06:51:05.383Z,72.37
2017-10-23T06:51:45.967Z,71.8
2017-10-23T06:52:26.332Z,72.08
2017-10-23T06:53:06.784Z,72.18
2017-10-23T06:53:47.541Z,72.18
2017-10-23T06:54:27.986Z,71.7
2017-10-23T06:55:08.434Z,71.8
2017-10-23T06:55:48.901Z,71.99
2017-10-23T06:58:07.966Z,71.7
2017-10-23T06:59:01.880Z,71.99
2017-10-23T06:59:55.384Z,71.89
2017-10-23T07:00:49.835Z,71.89
2017-10-23T07:01:46.483Z,72.37
2017-10-23T07:02:37.417Z,71.8
2017-10-23T07:03:18.572Z,71.8
2017-10-23T07:03:59.828Z,71.99
2017-10-23T07:04:40.265Z,71.99
2017-10-23T07:05:20.817Z,72.33
2017-10-23T07:06:28.405Z,71.61
2017-10-23T07:07:14.418Z,71.86
2017-10-23T07:07:54.821Z,72.75
2017-10-23T07:08:35.321Z,72.47
2017-10-23T07:09:15.710Z,72.66
2017-10-23T07:09:56.295Z,72.66
2017-10-23T07:10:36.643Z,72.47
2017-10-23T07:11:17.210Z,72.18
2017-10-23T07:11:57.445Z,72.28
2017-10-23T07:12:37.938Z,72.37
2017-10-23T07:13:18.312Z,72.08
2017-10-23T07:13:58.906Z,71.99
2017-10-23T07:14:41.035Z,72.47
2017-10-23T07:15:21.979Z,72.47
2017-10-23T07:16:02.736Z,71.8
2017-10-23T07:16:43.782Z,71.7
2017-10-23T07:17:24.551Z,71.7
2017-10-23T07:18:06.154Z,71.51
2017-10-23T07:18:46.364Z,71.61
2017-10-23T07:19:28.138Z,71.22
2017-10-23T07:20:08.378Z,71.99
2017-10-23T07:20:48.843Z,71.8
2017-10-23T07:21:29.465Z,71.61
2017-10-23T07:22:10.047Z,72.08
2017-10-23T07:22:50.520Z,71.89
2017-10-23T07:23:30.898Z,71.7
2017-10-23T07:24:12.217Z,72.18
2017-10-23T07:26:17.085Z,71.7
2017-10-23T07:27:05.074Z,71.61
2017-10-23T07:27:57.657Z,71.22
2017-10-23T07:28:47.721Z,71.13
2017-10-23T07:29:36.186Z,71.61
2017-10-23T07:32:04.405Z,71.13
2017-10-23T07:32:57.973Z,70.94
2017-10-23T07:33:51.926Z,71.32
2017-10-23T07:34:36.968Z,71.32
2017-10-23T07:35:17.269Z,71.99
2017-10-23T07:35:57.881Z,71.22
2017-10-23T07:36:38.382Z,71.03
2017-10-23T07:37:18.755Z,71.03
2017-10-23T07:37:59.999Z,70.97
2017-10-23T07:38:40.648Z,70.5
2017-10-23T07:39:21.222Z,70.3
2017-10-23T07:40:03.027Z,70.68
2017-10-23T07:40:43.366Z,70.68
2017-10-23T07:41:23.859Z,69.82
2017-10-23T07:42:04.610Z,70.11
2017-10-23T07:42:45.175Z,70.3
2017-10-23T07:43:25.572Z,70.3
2017-10-23T07:44:06.008Z,70.4
2017-10-23T07:44:46.544Z,70.5
2017-10-23T07:45:27.005Z,70.21
2017-10-23T07:46:07.330Z,69.92
2017-10-23T07:46:53.521Z,70.01
2017-10-23T07:47:33.950Z,69.92
2017-10-23T07:48:14.823Z,70.01
2017-10-23T07:48:56.294Z,70.59
2017-10-23T07:49:36.749Z,69.82
2017-10-23T07:50:17.514Z,69.35
2017-10-23T07:50:57.821Z,69.73
2017-10-23T07:53:19.808Z,70.84
2017-10-23T07:54:01.085Z,70.75
2017-10-23T07:54:42.850Z,70.84
2017-10-23T07:55:26.381Z,70.84
2017-10-23T07:56:05.618Z,70.84
2017-10-23T07:56:46.457Z,71.32
2017-10-23T07:57:28.134Z,71.42
2017-10-23T07:58:09.171Z,71.03
2017-10-23T07:58:50.943Z,70.94
2017-10-23T07:59:33.290Z,70.87
2017-10-23T08:00:13.533Z,70.68
2017-10-23T08:00:56.456Z,70.59
2017-10-23T08:01:36.120Z,70.27
2017-10-23T08:02:17.546Z,70.87
2017-10-23T08:03:00.164Z,71.03
2017-10-23T08:03:40.937Z,71.42
2017-10-23T08:04:22.014Z,70.78
2017-10-23T08:05:02.985Z,70.68
2017-10-23T08:05:42.909Z,70.59
2017-10-23T08:06:23.253Z,70.5
2017-10-23T08:07:03.933Z,70.59
2017-10-23T08:07:44.821Z,70.21
2017-10-23T08:08:26.344Z,70.68
2017-10-23T08:09:06.805Z,70.01
2017-10-23T08:09:48.554Z,70.59
2017-10-23T08:11:43.198Z,70.3
2017-10-23T08:13:49.154Z,70.21
2017-10-23T08:14:32.000Z,70.21
2017-10-23T08:15:14.475Z,70.5
2017-10-23T08:15:55.199Z,69.82
2017-10-23T08:16:38.023Z,69.82
2017-10-23T08:17:19.847Z,69.92
2017-10-23T08:18:02.826Z,69.64
2017-10-23T08:18:44.227Z,69.73
2017-10-23T08:19:25.180Z,69.73
2017-10-23T08:20:08.083Z,70.01
2017-10-23T08:20:52.005Z,70.11
2017-10-23T08:21:31.832Z,70.21
2017-10-23T08:22:14.554Z,69.82
2017-10-23T08:22:54.513Z,70.59
2017-10-23T08:24:54.368Z,70.21
2017-10-23T08:25:51.952Z,70.59
2017-10-23T08:28:02.732Z,70.5
2017-10-23T08:29:03.269Z,70.4
2017-10-23T08:30:03.803Z,70.59
2017-10-23T08:37:39.170Z,69.82
2017-10-23T08:38:39.617Z,70.21
2017-10-23T08:39:32.673Z,70.59
2017-10-23T08:40:27.105Z,70.59
2017-10-23T08:41:21.647Z,70.3
2017-10-23T08:43:48.534Z,70.21
2017-10-23T08:44:40.989Z,69.64
2017-10-23T08:45:36.568Z,70.01
2017-10-23T08:46:29.052Z,70.59
2017-10-23T08:48:30.941Z,69.82
2017-10-23T08:49:28.582Z,69.73
2017-10-23T08:50:24.163Z,70.11
2017-10-23T08:51:19.850Z,69.73
2017-10-23T08:52:13.353Z,70.11
2017-10-23T08:53:05.211Z,70.11
2017-10-23T08:53:59.290Z,69.76
2017-10-23T08:54:53.783Z,69.76
2017-10-23T08:55:44.943Z,69.76
2017-10-23T08:56:25.449Z,69.86
2017-10-23T08:57:06.097Z,69.67
2017-10-23T08:57:48.948Z,69.29
2017-10-23T08:58:29.506Z,69.67
2017-10-23T08:59:11.736Z,69.19
2017-10-23T08:59:53.341Z,69.76
2017-10-23T09:00:34.260Z,69.29
2017-10-23T09:01:14.830Z,69.38
2017-10-23T09:02:04.753Z,68.8
2017-10-23T09:03:34.804Z,68.62
2017-10-23T09:04:22.461Z,69.57
2017-10-23T09:05:03.460Z,69.48
2017-10-23T09:05:44.251Z,69.38
2017-10-23T09:06:24.860Z,68.8
2017-10-23T09:07:10.731Z,68.65
2017-10-23T09:09:06.343Z,68.17
2017-10-23T09:10:00.117Z,69.03
2017-10-23T09:13:38.463Z,68.27
2017-10-23T09:14:22.028Z,68.27
2017-10-23T09:15:03.527Z,68.17
2017-10-23T09:15:45.196Z,67.6
2017-10-23T09:16:26.614Z,67.69
2017-10-23T09:17:11.373Z,67.21
2017-10-23T09:17:52.798Z,67.41
2017-10-23T09:18:33.479Z,67.88
2017-10-23T09:19:14.848Z,67.88
2017-10-23T09:19:58.652Z,67.76
2017-10-23T09:20:41.743Z,68.13
2017-10-23T09:21:22.944Z,68.52
2017-10-23T09:22:03.831Z,68.55
2017-10-23T09:22:45.138Z,68.36
2017-10-23T09:23:27.116Z,67.69
2017-10-23T09:24:10.609Z,67.69
2017-10-23T09:24:52.537Z,67.5
2017-10-23T09:25:33.535Z,67.21
2017-10-23T09:26:14.430Z,67.02
2017-10-23T09:26:55.852Z,67.98
2017-10-23T09:27:35.885Z,67.21
2017-10-23T09:30:06.862Z,67.21
2017-10-23T09:31:20.495Z,66.93
2017-10-23T09:33:18.639Z,65.17
2017-10-23T09:34:14.199Z,64.79
2017-10-23T09:35:14.300Z,64.02
2017-10-23T09:36:09.164Z,63.26
2017-10-23T09:36:56.797Z,62.96
2017-10-23T09:37:37.209Z,62.9
2017-10-23T09:38:18.015Z,63.29
2017-10-23T09:39:00.024Z,62.13
2017-10-23T09:39:41.892Z,61.94
2017-10-23T09:40:29.593Z,61.66
2017-10-23T09:45:58.417Z,59.89
2017-10-23T09:46:57.039Z,59.7
2017-10-23T09:47:53.009Z,59.61
2017-10-23T09:48:50.817Z,59.61
2017-10-23T09:49:44.413Z,58.84
2017-10-23T09:50:39.778Z,59.61
2017-10-23T09:51:36.529Z,59.51
2017-10-23T09:52:17.132Z,59.86
2017-10-23T09:52:58.825Z,60.25
2017-10-23T09:53:39.881Z,60.15
2017-10-23T09:54:22.268Z,60.53
2017-10-23T09:55:03.785Z,60.53
2017-10-23T09:55:43.962Z,60.53
2017-10-23T09:56:26.800Z,60.35
2017-10-23T09:57:07.794Z,60.63
2017-10-23T09:57:48.840Z,60.44
2017-10-23T09:58:32.496Z,60.63
2017-10-23T09:59:25.113Z,61.21
2017-10-23T10:00:06.797Z,61.66
2017-10-23T10:00:48.024Z,62.04
2017-10-23T10:01:30.369Z,62.42
2017-10-23T10:02:10.741Z,62.13
2017-10-23T10:02:51.953Z,62.04
2017-10-23T10:41:34.828Z,62.9
2017-10-23T10:42:37.494Z,62.9
2017-10-23T10:43:37.861Z,63.29
2017-10-23T10:44:36.845Z,63
2017-10-23T10:45:33.829Z,63.48
2017-10-23T10:46:24.648Z,62.71
2017-10-23T10:47:05.259Z,62.71
2017-10-23T10:47:49.507Z,62.9
2017-10-23T10:50:47.762Z,62.13
2017-10-23T10:51:47.769Z,62.07
2017-10-23T10:52:47.596Z,61.02
2017-10-23T10:53:47.490Z,60.63
2017-10-23T10:54:46.584Z,60.82
2017-10-23T10:55:48.057Z,60.85
2017-10-23T10:56:47.737Z,60.25
2017-10-23T10:57:46.929Z,59.41
2017-10-23T10:58:53.398Z,60.38
2017-10-23T11:03:29.511Z,59.99
2017-10-23T11:04:10.519Z,59.7
2017-10-23T11:04:52.217Z,59.22
2017-10-23T11:05:33.684Z,59.41
2017-10-23T11:06:14.229Z,59.51
2017-10-23T11:06:54.722Z,59.7
2017-10-23T11:07:35.714Z,58.84
2017-10-23T11:08:15.926Z,58.55
2017-10-23T11:08:56.900Z,58.64
2017-10-23T11:09:37.538Z,59.03
2017-10-23T11:10:18.148Z,58.74
2017-10-23T11:10:58.753Z,59.89